WXM80 ListenWXM80 Stop

You find our weather info also at:

UK Metoffice

WeatherCloud

Weather Underground

Northeastern Weather Network

AWEKAS

Citizen Weather Observer Program (CWOP)

HAMweather, WeatherForYou, PWS Weather


Weather Underground History page Text

Daily Summary for October 17, 2017 Units:  English    Metric   Both
« Previous Day
Next Day »
Daily Weekly Monthly Yearly Custom
  High: Low: Average:
Temperature: 60.0 °F 45.5 °F 51 °F
Dew Point: 44.3 °F 35.3 °F 39.6 °F
Humidity: 79 % 44 % 66 %
Wind Speed: 10.6 mph 0.0 mph 3.3 mph
Wind Gust: 18.4 mph - -
Wind:- - SSE
Pressure: 30.30 in 30.06 in -
Precipitation: 0.00 in    
Historical Graphs
 
 
Tabular Data for October 17, 2017
Time Temperature Dew Point Pressure Wind Wind Speed Wind Gust Humidity Rainfall Rate (Hourly)
00:04 49.4 °F 39.7 °F 30.15 in NNE 5.2 mph 11.5 mph 69 % 0.00 in
00:09 49.3 °F 39.9 °F 30.15 in North 8.4 mph 12.7 mph 70 % 0.00 in
00:14 49.2 °F 39.5 °F 30.15 in NE 6.2 mph 16.1 mph 69 % 0.00 in
00:20 49.1 °F 39.0 °F 30.16 in NNE 9.3 mph 17.3 mph 68 % 0.00 in
00:25 49.1 °F 39.7 °F 30.16 in North 5.6 mph 10.4 mph 70 % 0.00 in
00:30 49.0 °F 39.6 °F 30.16 in NNW 6.0 mph 11.5 mph 70 % 0.00 in
00:35 48.9 °F 39.5 °F 30.15 in North 6.7 mph 12.7 mph 70 % 0.00 in
00:40 48.9 °F 39.9 °F 30.15 in NNE 7.6 mph 13.8 mph 71 % 0.00 in
00:45 48.8 °F 39.8 °F 30.15 in North 3.1 mph 9.2 mph 71 % 0.00 in
00:50 48.7 °F 39.7 °F 30.16 in NNE 4.7 mph 11.5 mph 71 % 0.00 in
00:55 48.7 °F 40.1 °F 30.16 in NNE 6.0 mph 10.4 mph 72 % 0.00 in
01:00 48.6 °F 40.0 °F 30.15 in West 5.3 mph 11.5 mph 72 % 0.00 in
01:05 48.5 °F 39.9 °F 30.16 in North 5.0 mph 11.5 mph 72 % 0.00 in
01:10 48.4 °F 39.8 °F 30.16 in NNW 8.1 mph 12.7 mph 72 % 0.00 in
01:15 48.3 °F 39.0 °F 30.16 in North 5.1 mph 9.2 mph 70 % 0.00 in
01:20 48.2 °F 39.2 °F 30.16 in NNE 9.2 mph 12.7 mph 71 % 0.00 in
01:25 48.1 °F 39.1 °F 30.16 in NNW 8.6 mph 13.0 mph 71 % 0.00 in
01:30 48.1 °F 39.5 °F 30.16 in NNE 5.2 mph 8.1 mph 72 % 0.00 in
01:35 48.0 °F 39.4 °F 30.16 in NNE 7.5 mph 11.5 mph 72 % 0.00 in
01:40 48.0 °F 39.0 °F 30.16 in North 6.9 mph 15.0 mph 71 % 0.00 in
01:45 47.9 °F 39.3 °F 30.17 in North 6.2 mph 11.5 mph 72 % 0.00 in
01:50 47.9 °F 38.6 °F 30.17 in NNE 8.9 mph 18.4 mph 70 % 0.00 in
01:56 47.8 °F 38.8 °F 30.17 in North 7.0 mph 14.0 mph 71 % 0.00 in
02:01 47.8 °F 38.5 °F 30.17 in NNE 6.2 mph 11.5 mph 70 % 0.00 in
02:06 47.8 °F 38.5 °F 30.18 in North 6.0 mph 11.5 mph 70 % 0.00 in
02:11 47.7 °F 38.4 °F 30.18 in NNE 7.5 mph 11.5 mph 70 % 0.00 in
02:16 47.7 °F 38.4 °F 30.18 in NNW 10.6 mph 18.0 mph 70 % 0.00 in
02:21 47.6 °F 37.9 °F 30.18 in NNE 6.4 mph 11.5 mph 69 % 0.00 in
02:26 47.6 °F 37.9 °F 30.18 in NNE 6.4 mph 12.0 mph 69 % 0.00 in
02:31 47.6 °F 37.9 °F 30.18 in NNE 7.1 mph 10.4 mph 69 % 0.00 in
02:36 47.6 °F 38.3 °F 30.18 in ENE 6.9 mph 11.0 mph 70 % 0.00 in
02:41 47.5 °F 37.5 °F 30.18 in North 6.0 mph 9.2 mph 68 % 0.00 in
02:46 47.5 °F 37.8 °F 30.17 in NE 6.3 mph 13.8 mph 69 % 0.00 in
02:51 47.5 °F 38.2 °F 30.18 in NNE 7.8 mph 13.0 mph 70 % 0.00 in
02:56 47.5 °F 38.2 °F 30.17 in NNW 7.6 mph 11.5 mph 70 % 0.00 in
03:01 47.4 °F 37.4 °F 30.18 in North 7.2 mph 13.8 mph 68 % 0.00 in
03:06 47.4 °F 38.1 °F 30.18 in NNE 7.9 mph 12.0 mph 70 % 0.00 in
03:12 47.3 °F 38.4 °F 30.17 in NNE 8.3 mph 15.0 mph 71 % 0.00 in
03:17 47.3 °F 39.1 °F 30.17 in NNE 7.6 mph 12.7 mph 73 % 0.00 in
03:22 47.2 °F 39.0 °F 30.18 in NNE 7.2 mph 12.7 mph 73 % 0.00 in
03:27 47.1 °F 38.5 °F 30.17 in North 9.8 mph 15.0 mph 72 % 0.00 in
03:32 47.1 °F 39.2 °F 30.17 in NNW 5.2 mph 10.4 mph 74 % 0.00 in
03:37 47.0 °F 38.4 °F 30.18 in NE 5.2 mph 11.5 mph 72 % 0.00 in
03:42 46.9 °F 38.7 °F 30.18 in NNE 7.2 mph 12.7 mph 73 % 0.00 in
03:47 46.9 °F 39.0 °F 30.18 in NNE 9.0 mph 11.5 mph 74 % 0.00 in
03:52 46.9 °F 39.4 °F 30.18 in NNW 8.8 mph 13.8 mph 75 % 0.00 in
03:57 46.8 °F 39.3 °F 30.18 in North 7.3 mph 9.0 mph 75 % 0.00 in
04:02 46.8 °F 38.6 °F 30.18 in NNE 6.6 mph 12.7 mph 73 % 0.00 in
04:07 46.7 °F 38.5 °F 30.19 in North 9.4 mph 11.5 mph 73 % 0.00 in
04:12 46.7 °F 38.1 °F 30.21 in North 5.2 mph 11.5 mph 72 % 0.00 in
04:17 46.7 °F 39.2 °F 30.21 in NNE 8.2 mph 16.0 mph 75 % 0.00 in
04:22 46.6 °F 39.1 °F 30.20 in NE 5.5 mph 11.5 mph 75 % 0.00 in
04:26 46.5 °F 39.3 °F 30.20 in North 7.9 mph 12.7 mph 76 % 0.00 in
04:31 46.4 °F 39.2 °F 30.20 in NNE 6.7 mph 11.5 mph 76 % 0.00 in
04:36 46.3 °F 39.8 °F 30.20 in NNE 4.9 mph 10.4 mph 78 % 0.00 in
04:41 46.1 °F 38.3 °F 30.20 in NNE 7.7 mph 14.0 mph 74 % 0.00 in
04:46 46.0 °F 38.5 °F 30.21 in North 6.0 mph 10.4 mph 75 % 0.00 in
04:51 46.0 °F 38.5 °F 30.20 in NNE 7.4 mph 11.5 mph 75 % 0.00 in
04:56 46.0 °F 38.5 °F 30.21 in North 7.4 mph 8.1 mph 75 % 0.00 in
05:01 46.0 °F 38.5 °F 30.21 in North 4.1 mph 10.4 mph 75 % 0.00 in
05:06 45.9 °F 38.4 °F 30.21 in North 8.2 mph 12.7 mph 75 % 0.00 in
05:11 45.9 °F 38.8 °F 30.21 in NE 6.5 mph 12.0 mph 76 % 0.00 in
05:16 45.9 °F 39.1 °F 30.21 in NNE 9.2 mph 12.7 mph 77 % 0.00 in
05:22 45.9 °F 38.4 °F 30.21 in North 5.9 mph 13.8 mph 75 % 0.00 in
05:27 46.0 °F 38.5 °F 30.21 in North 4.9 mph 11.5 mph 75 % 0.00 in
05:32 46.0 °F 38.9 °F 30.22 in North 5.4 mph 12.0 mph 76 % 0.00 in
05:37 46.0 °F 39.2 °F 30.22 in NNE 6.4 mph 8.1 mph 77 % 0.00 in
05:42 45.9 °F 38.4 °F 30.22 in North 6.0 mph 9.2 mph 75 % 0.00 in
05:47 45.9 °F 38.4 °F 30.22 in NE 5.1 mph 11.5 mph 75 % 0.00 in
05:52 45.8 °F 38.3 °F 30.23 in NNE 5.8 mph 10.4 mph 75 % 0.00 in
05:57 45.8 °F 38.3 °F 30.23 in NNE 4.4 mph 8.1 mph 75 % 0.00 in
06:02 45.8 °F 38.3 °F 30.22 in North 6.2 mph 11.5 mph 75 % 0.00 in
06:07 45.8 °F 38.0 °F 30.23 in North 7.1 mph 11.5 mph 74 % 0.00 in
06:12 45.8 °F 38.3 °F 30.23 in NNE 4.3 mph 8.1 mph 75 % 0.00 in
06:17 45.8 °F 38.7 °F 30.23 in North 5.2 mph 9.2 mph 76 % 0.00 in
06:27 45.8 °F 38.7 °F 30.24 in NE 6.9 mph 10.4 mph 76 % 0.00 in
06:32 45.8 °F 38.3 °F 30.24 in North 8.0 mph 11.5 mph 75 % 0.00 in
06:37 45.8 °F 38.3 °F 30.24 in NNE 5.7 mph 11.5 mph 75 % 0.00 in
06:42 45.9 °F 38.1 °F 30.24 in NNE 7.7 mph 12.7 mph 74 % 0.00 in
06:47 46.0 °F 38.9 °F 30.24 in NNE 6.7 mph 15.0 mph 76 % 0.00 in
06:52 46.0 °F 38.2 °F 30.24 in NNE 8.3 mph 12.7 mph 74 % 0.00 in
06:57 46.0 °F 38.2 °F 30.25 in North 8.6 mph 16.1 mph 74 % 0.00 in
07:02 46.0 °F 36.0 °F 30.24 in North 9.6 mph 16.1 mph 68 % 0.00 in
07:07 45.9 °F 36.3 °F 30.25 in North 7.9 mph 13.8 mph 69 % 0.00 in
07:12 45.8 °F 35.5 °F 30.25 in North 6.4 mph 11.5 mph 67 % 0.00 in
07:17 45.8 °F 36.9 °F 30.25 in North 7.0 mph 10.4 mph 71 % 0.00 in
07:23 45.7 °F 37.5 °F 30.27 in North 6.7 mph 11.5 mph 73 % 0.00 in
07:28 45.7 °F 37.9 °F 30.26 in NNE 5.5 mph 8.1 mph 74 % 0.00 in
07:33 45.7 °F 37.5 °F 30.25 in NNE 5.2 mph 11.5 mph 73 % 0.00 in
07:38 45.6 °F 37.1 °F 30.25 in North 3.6 mph 9.2 mph 72 % 0.00 in
07:43 45.5 °F 36.6 °F 30.25 in North 4.4 mph 9.0 mph 71 % 0.00 in
07:48 45.6 °F 36.4 °F 30.26 in NNE 5.1 mph 6.9 mph 70 % 0.00 in
07:53 45.6 °F 35.6 °F 30.26 in NNW 6.0 mph 11.5 mph 68 % 0.00 in
07:58 45.6 °F 35.3 °F 30.26 in NNE 6.5 mph 8.1 mph 67 % 0.00 in
08:03 45.8 °F 36.6 °F 30.26 in NNW 3.9 mph 11.5 mph 70 % 0.00 in
08:08 45.8 °F 35.8 °F 30.26 in North 7.1 mph 10.4 mph 68 % 0.00 in
08:13 45.8 °F 36.6 °F 30.27 in NNE 4.9 mph 9.2 mph 70 % 0.00 in
08:18 45.9 °F 37.0 °F 30.26 in NNW 5.6 mph 10.4 mph 71 % 0.00 in
08:23 45.9 °F 37.4 °F 30.26 in North 8.2 mph 11.5 mph 72 % 0.00 in
08:28 46.1 °F 38.3 °F 30.26 in NW 6.3 mph 9.0 mph 74 % 0.00 in
08:33 46.1 °F 37.6 °F 30.27 in North 3.3 mph 9.2 mph 72 % 0.00 in
08:38 46.1 °F 37.2 °F 30.27 in NNE 5.0 mph 8.1 mph 71 % 0.00 in
08:43 46.3 °F 38.1 °F 30.27 in NNE 5.2 mph 9.2 mph 73 % 0.00 in
08:48 46.3 °F 38.5 °F 30.27 in North 4.8 mph 8.1 mph 74 % 0.00 in
08:53 46.4 °F 38.6 °F 30.28 in NNE 6.2 mph 10.0 mph 74 % 0.00 in
08:58 46.4 °F 38.6 °F 30.27 in NE 5.1 mph 10.4 mph 74 % 0.00 in
09:03 46.5 °F 38.3 °F 30.28 in NNE 3.7 mph 5.0 mph 73 % 0.00 in
09:07 46.5 °F 38.7 °F 30.27 in NNE 5.5 mph 11.5 mph 74 % 0.00 in
09:12 46.5 °F 38.3 °F 30.27 in NNE 6.9 mph 11.5 mph 73 % 0.00 in
09:17 46.5 °F 38.7 °F 30.28 in NNE 4.1 mph 9.2 mph 74 % 0.00 in
09:22 46.5 °F 38.7 °F 30.27 in NNE 8.2 mph 11.0 mph 74 % 0.00 in
09:27 46.6 °F 39.1 °F 30.27 in NE 6.2 mph 10.4 mph 75 % 0.00 in
09:32 46.8 °F 38.9 °F 30.27 in North 3.7 mph 6.0 mph 74 % 0.00 in
09:37 46.9 °F 39.4 °F 30.27 in North 2.6 mph 6.9 mph 75 % 0.00 in
09:42 47.1 °F 39.2 °F 30.27 in NNE 3.5 mph 8.1 mph 74 % 0.00 in
09:47 47.2 °F 39.3 °F 30.27 in NNE 2.3 mph 6.9 mph 74 % 0.00 in
09:52 47.4 °F 39.5 °F 30.27 in NNE 4.6 mph 6.9 mph 74 % 0.00 in
09:57 47.8 °F 39.2 °F 30.27 in NNE 3.4 mph 8.1 mph 72 % 0.00 in
10:02 48.4 °F 39.4 °F 30.27 in North 3.6 mph 9.2 mph 71 % 0.00 in
10:07 49.0 °F 38.9 °F 30.27 in ENE 3.5 mph 5.0 mph 68 % 0.00 in
10:12 49.4 °F 38.9 °F 30.27 in NNW 5.9 mph 8.0 mph 67 % 0.00 in
10:17 49.6 °F 38.7 °F 30.26 in NNE 6.6 mph 8.1 mph 66 % 0.00 in
10:19 49.6 °F 38.7 °F 30.27 in North 4.8 mph 7.0 mph 66 % 0.00 in
10:24 49.7 °F 38.0 °F 30.26 in NE 3.2 mph 10.4 mph 64 % 0.00 in
10:29 49.9 °F 39.0 °F 30.26 in NE 3.2 mph 4.6 mph 66 % 0.00 in
10:34 49.8 °F 38.9 °F 30.26 in ENE 3.8 mph 10.4 mph 66 % 0.00 in
10:35 49.9 °F 39.0 °F 30.26 in ENE 3.8 mph 10.4 mph 66 % 0.00 in
10:45 49.7 °F 38.8 °F 30.26 in NNE 5.7 mph 9.2 mph 66 % 0.00 in
10:50 49.7 °F 38.0 °F 30.26 in NE 0.9 mph 3.5 mph 64 % 0.00 in
10:55 49.7 °F 38.0 °F 30.26 in NNE 3.3 mph 6.0 mph 64 % 0.00 in
11:00 49.8 °F 37.7 °F 30.26 in NNE 3.9 mph 8.0 mph 63 % 0.00 in
11:05 49.9 °F 37.4 °F 30.25 in North 0.2 mph 3.5 mph 62 % 0.00 in
11:10 50.1 °F 38.0 °F 30.26 in North 2.5 mph 4.6 mph 63 % 0.00 in
11:15 50.4 °F 38.3 °F 30.26 in NE 1.5 mph 3.5 mph 63 % 0.00 in
11:20 50.9 °F 37.5 °F 30.25 in NE 3.2 mph 4.6 mph 60 % 0.00 in
11:25 51.7 °F 36.5 °F 30.25 in ENE 2.6 mph 4.6 mph 56 % 0.00 in
11:30 52.7 °F 38.8 °F 30.26 in North 4.0 mph 5.8 mph 59 % 0.00 in
11:35 53.9 °F 39.5 °F 30.26 in NNE 2.5 mph 5.8 mph 58 % 0.00 in
11:40 55.0 °F 40.9 °F 30.26 in North 2.5 mph 5.8 mph 59 % 0.00 in
11:45 55.8 °F 40.8 °F 30.26 in NNE 2.6 mph 6.0 mph 57 % 0.00 in
11:50 56.2 °F 40.2 °F 30.25 in ENE 0.3 mph 1.2 mph 55 % 0.00 in
11:55 57.3 °F 40.8 °F 30.25 in ENE 0.7 mph 6.9 mph 54 % 0.00 in
12:01 57.8 °F 40.3 °F 30.25 in NNE 1.1 mph 2.3 mph 52 % 0.00 in
12:06 58.4 °F 41.3 °F 30.25 in North 3.2 mph 5.8 mph 53 % 0.00 in
12:11 58.6 °F 39.5 °F 30.25 in North 3.4 mph 5.8 mph 49 % 0.00 in
12:16 58.6 °F 41.5 °F 30.25 in NNE 1.3 mph 3.5 mph 53 % 0.00 in
12:21 58.7 °F 39.6 °F 30.25 in NNE 2.8 mph 4.6 mph 49 % 0.00 in
12:24 58.7 °F 40.6 °F 30.25 in NNE 0.7 mph 2.3 mph 51 % 0.00 in
12:29 58.6 °F 41.0 °F 30.25 in NNE 4.1 mph 5.0 mph 52 % 0.00 in
12:34 58.6 °F 39.5 °F 30.25 in NW 2.3 mph 4.0 mph 49 % 0.00 in
12:39 58.5 °F 40.9 °F 30.25 in NNW 0.1 mph 2.3 mph 52 % 0.00 in
12:44 58.5 °F 39.4 °F 30.24 in NNE 2.0 mph 4.0 mph 49 % 0.00 in
12:49 58.3 °F 39.2 °F 30.24 in NNW 1.3 mph 3.5 mph 49 % 0.00 in
12:54 58.1 °F 39.0 °F 30.24 in North 0.6 mph 4.6 mph 49 % 0.00 in
12:59 58.2 °F 39.6 °F 30.24 in WNW 1.9 mph 4.0 mph 50 % 0.00 in
13:00 58.2 °F 39.6 °F 30.24 in WNW 2.6 mph 3.5 mph 50 % 0.00 in
13:05 58.3 °F 39.7 °F 30.26 in WSW 2.2 mph 4.6 mph 50 % 0.00 in
13:10 58.3 °F 41.2 °F 30.24 in North 1.2 mph 3.5 mph 53 % 0.00 in
13:15 58.2 °F 38.6 °F 30.23 in North 1.4 mph 3.0 mph 48 % 0.00 in
13:20 58.2 °F 38.1 °F 30.24 in North 0.3 mph 2.3 mph 47 % 0.00 in
13:25 58.5 °F 41.9 °F 30.23 in NNE 0.6 mph 2.3 mph 54 % 0.00 in
13:30 58.7 °F 39.0 °F 30.23 in Calm     48 % 0.00 in
13:36 59.1 °F 41.9 °F 30.23 in NNW 2.0 mph 5.0 mph 53 % 0.00 in
13:41 59.3 °F 40.1 °F 30.23 in WNW 0.8 mph 4.0 mph 49 % 0.00 in
13:46 59.3 °F 38.5 °F 30.22 in West 0.6 mph 3.5 mph 46 % 0.00 in
13:51 59.4 °F 40.2 °F 30.23 in West 1.8 mph 3.5 mph 49 % 0.00 in
13:56 59.5 °F 40.8 °F 30.23 in WNW 2.8 mph 4.6 mph 50 % 0.00 in
14:01 59.5 °F 39.8 °F 30.23 in West 1.6 mph 3.5 mph 48 % 0.00 in
14:06 59.6 °F 40.4 °F 30.23 in West 0.7 mph 1.2 mph 49 % 0.00 in
14:11 59.7 °F 40.5 °F 30.23 in WSW 3.4 mph 7.0 mph 49 % 0.00 in
14:16 59.8 °F 40.1 °F 30.22 in SW 4.9 mph 6.9 mph 48 % 0.00 in
14:21 59.8 °F 39.5 °F 30.22 in WSW 1.0 mph 2.3 mph 47 % 0.00 in
14:26 59.8 °F 40.1 °F 30.22 in WSW 0.4 mph 4.6 mph 48 % 0.00 in
14:31 59.9 °F 39.6 °F 30.21 in WSW 1.8 mph 2.3 mph 47 % 0.00 in
14:33 59.9 °F 39.1 °F 30.22 in WSW 2.4 mph 6.9 mph 46 % 0.00 in
14:38 60.0 °F 39.7 °F 30.22 in WSW 2.3 mph 3.5 mph 47 % 0.00 in
14:43 60.0 °F 40.2 °F 30.22 in SW 0.7 mph 4.6 mph 48 % 0.00 in
14:48 60.0 °F 39.1 °F 30.21 in WNW 1.9 mph 5.0 mph 46 % 0.00 in
14:53 60.0 °F 40.2 °F 30.21 in WNW 0.2 mph 1.2 mph 48 % 0.00 in
14:58 59.9 °F 40.1 °F 30.21 in SW 0.7 mph 6.9 mph 48 % 0.00 in
15:03 59.9 °F 39.1 °F 30.21 in SSW 3.4 mph 4.6 mph 46 % 0.00 in
15:08 59.8 °F 39.0 °F 30.21 in WNW 1.2 mph 3.5 mph 46 % 0.00 in
15:13 59.7 °F 38.9 °F 30.21 in West 3.5 mph 6.9 mph 46 % 0.00 in
15:18 59.5 °F 38.7 °F 30.20 in WSW 1.0 mph 2.3 mph 46 % 0.00 in
15:23 59.4 °F 39.7 °F 30.20 in SW 0.3 mph 3.5 mph 48 % 0.00 in
15:28 59.2 °F 37.3 °F 30.20 in NW 2.2 mph 4.0 mph 44 % 0.00 in
15:33 58.9 °F 37.0 °F 30.20 in WSW 3.5 mph 5.8 mph 44 % 0.00 in
15:38 58.7 °F 37.4 °F 30.20 in WSW 0.8 mph 2.3 mph 45 % 0.00 in
15:43 58.5 °F 37.8 °F 30.20 in WNW 1.6 mph 5.0 mph 46 % 0.00 in
15:48 58.2 °F 37.5 °F 30.19 in WNW 2.7 mph 5.8 mph 46 % 0.00 in
15:53 58.0 °F 37.3 °F 30.20 in WSW 0.8 mph 3.5 mph 46 % 0.00 in
15:58 57.8 °F 36.6 °F 30.20 in WSW 2.2 mph 4.6 mph 45 % 0.00 in
16:03 57.7 °F 37.6 °F 30.19 in SW 1.5 mph 4.6 mph 47 % 0.00 in
16:09 57.4 °F 36.8 °F 30.19 in SW 1.7 mph 3.5 mph 46 % 0.00 in
16:14 57.3 °F 37.2 °F 30.19 in WSW 2.3 mph 3.5 mph 47 % 0.00 in
16:19 57.2 °F 37.1 °F 30.19 in Calm   1.0 mph 47 % 0.00 in
16:24 57.1 °F 37.0 °F 30.19 in WSW 2.4 mph 3.5 mph 47 % 0.00 in
16:29 56.9 °F 37.4 °F 30.19 in SSW 3.7 mph 4.6 mph 48 % 0.00 in
16:34 56.8 °F 36.8 °F 30.20 in WSW 4.0 mph 5.8 mph 47 % 0.00 in
16:39 56.7 °F 37.2 °F 30.19 in Calm   1.0 mph 48 % 0.00 in
16:41 56.7 °F 36.7 °F 30.19 in WSW 0.3 mph 1.2 mph 47 % 0.00 in
16:46 56.6 °F 37.6 °F 30.18 in West 1.9 mph 3.5 mph 49 % 0.00 in
16:51 56.5 °F 37.6 °F 30.18 in Calm   1.2 mph 49 % 0.00 in
16:56 56.4 °F 37.5 °F 30.18 in West 0.4 mph 1.2 mph 49 % 0.00 in
17:01 56.3 °F 37.4 °F 30.18 in Calm     49 % 0.00 in
17:06 56.3 °F 37.9 °F 30.18 in West 0.1 mph 1.0 mph 50 % 0.00 in
17:11 56.2 °F 38.3 °F 30.18 in Calm     51 % 0.00 in
17:16 56.1 °F 38.2 °F 30.18 in Calm     51 % 0.00 in
17:21 56.0 °F 38.6 °F 30.18 in Calm     52 % 0.00 in
17:26 55.9 °F 39.5 °F 30.18 in Calm     54 % 0.00 in
17:32 55.8 °F 39.4 °F 30.18 in Calm     54 % 0.00 in
17:37 55.6 °F 40.1 °F 30.19 in Calm     56 % 0.00 in
17:42 55.5 °F 40.5 °F 30.18 in Calm     57 % 0.00 in
17:47 55.3 °F 41.2 °F 30.19 in Calm   1.2 mph 59 % 0.00 in
17:52 55.0 °F 41.4 °F 30.19 in Calm     60 % 0.00 in
17:57 54.7 °F 41.9 °F 30.18 in Calm     62 % 0.00 in
18:02 54.4 °F 42.1 °F 30.19 in Calm     63 % 0.00 in
18:06 54.1 °F 42.2 °F 30.19 in Calm     64 % 0.00 in
18:11 53.8 °F 41.9 °F 30.19 in Calm     64 % 0.00 in
18:16 53.5 °F 41.6 °F 30.19 in Calm   1.2 mph 64 % 0.00 in
18:21 53.1 °F 40.8 °F 30.19 in West 0.7 mph 1.2 mph 63 % 0.00 in
18:27 52.9 °F 41.0 °F 30.19 in Calm     64 % 0.00 in
18:32 52.6 °F 40.8 °F 30.19 in Calm   1.2 mph 64 % 0.00 in
18:37 52.3 °F 40.9 °F 30.19 in Calm     65 % 0.00 in
18:42 52.0 °F 41.0 °F 30.19 in Calm     66 % 0.00 in
18:47 51.8 °F 40.8 °F 30.19 in Calm     66 % 0.00 in
18:52 51.5 °F 41.3 °F 30.20 in Calm     68 % 0.00 in
18:57 51.2 °F 41.0 °F 30.20 in Calm     68 % 0.00 in
19:02 51.0 °F 41.2 °F 30.20 in Calm     69 % 0.00 in
19:07 50.7 °F 41.3 °F 30.20 in Calm     70 % 0.00 in
19:12 50.5 °F 41.1 °F 30.21 in West 0.2 mph 1.0 mph 70 % 0.00 in
19:17 50.3 °F 40.9 °F 30.21 in Calm     70 % 0.00 in
19:22 50.0 °F 41.0 °F 30.21 in Calm   1.2 mph 71 % 0.00 in
19:27 49.8 °F 40.8 °F 30.21 in Calm     71 % 0.00 in
19:32 49.7 °F 41.0 °F 30.21 in Calm     72 % 0.00 in
19:37 49.5 °F 40.8 °F 30.21 in Calm     72 % 0.00 in
19:42 49.4 °F 41.1 °F 30.21 in Calm     73 % 0.00 in
19:47 49.3 °F 41.0 °F 30.21 in Calm     73 % 0.00 in
19:52 49.2 °F 40.9 °F 30.22 in Calm   1.2 mph 73 % 0.00 in
19:57 49.1 °F 40.8 °F 30.22 in West 0.1 mph 1.2 mph 73 % 0.00 in
20:02 49.0 °F 41.1 °F 30.21 in West 0.1 mph 1.2 mph 74 % 0.00 in
20:07 49.0 °F 41.1 °F 30.21 in Calm   1.2 mph 74 % 0.00 in
20:08 48.9 °F 41.0 °F 30.21 in Calm   1.2 mph 74 % 0.00 in
20:13 48.9 °F 41.0 °F 30.21 in West 0.8 mph 2.3 mph 74 % 0.00 in
20:18 48.8 °F 40.9 °F 30.21 in WSW 0.5 mph 2.3 mph 74 % 0.00 in
20:23 48.8 °F 40.9 °F 30.21 in SW 0.4 mph 3.5 mph 74 % 0.00 in
20:28 48.8 °F 40.9 °F 30.21 in SW 0.1 mph 1.2 mph 74 % 0.00 in
20:34 48.8 °F 40.9 °F 30.21 in SW 0.5 mph 2.3 mph 74 % 0.00 in
20:39 48.8 °F 41.2 °F 30.21 in SW 0.2 mph 1.2 mph 75 % 0.00 in
20:44 48.9 °F 41.3 °F 30.21 in SW 0.2 mph 2.3 mph 75 % 0.00 in
20:49 48.9 °F 41.3 °F 30.21 in Calm   1.2 mph 75 % 0.00 in
20:54 49.0 °F 41.4 °F 30.21 in Calm   2.3 mph 75 % 0.00 in
20:59 49.1 °F 41.5 °F 30.22 in Calm     75 % 0.00 in
21:04 49.2 °F 41.6 °F 30.22 in Calm   1.0 mph 75 % 0.00 in
21:09 49.3 °F 41.7 °F 30.22 in SW 0.9 mph 2.3 mph 75 % 0.00 in
21:14 49.3 °F 41.7 °F 30.22 in SW 0.1 mph 1.2 mph 75 % 0.00 in
21:19 49.4 °F 41.8 °F 30.22 in SW 0.1 mph   75 % 0.00 in
21:24 49.4 °F 41.8 °F 30.21 in Calm   1.0 mph 75 % 0.00 in
21:29 49.4 °F 41.8 °F 30.21 in Calm     75 % 0.00 in
21:34 49.5 °F 41.9 °F 30.22 in SW 0.1 mph 3.0 mph 75 % 0.00 in
21:39 49.5 °F 41.9 °F 30.22 in SW 0.6 mph 2.0 mph 75 % 0.00 in
21:44 49.5 °F 41.9 °F 30.22 in SW 0.8 mph 2.0 mph 75 % 0.00 in
21:49 49.6 °F 42.3 °F 30.22 in SW 0.2 mph 2.0 mph 76 % 0.00 in
21:54 49.6 °F 42.3 °F 30.21 in SW 0.9 mph 2.3 mph 76 % 0.00 in
21:59 49.7 °F 42.8 °F 30.21 in SW 0.3 mph 1.2 mph 77 % 0.00 in
22:04 49.8 °F 42.9 °F 30.22 in SW 0.2 mph 2.3 mph 77 % 0.00 in
22:09 49.9 °F 43.3 °F 30.22 in SW 0.2 mph 1.2 mph 78 % 0.00 in
22:14 49.9 °F 43.3 °F 30.22 in WSW 1.6 mph 4.6 mph 78 % 0.00 in
22:19 50.0 °F 43.4 °F 30.22 in SW 1.2 mph 3.5 mph 78 % 0.00 in
22:24 50.1 °F 43.8 °F 30.22 in SW 0.1 mph 5.8 mph 79 % 0.00 in
22:29 50.2 °F 43.6 °F 30.22 in WSW 2.7 mph 6.9 mph 78 % 0.00 in
22:34 50.3 °F 43.7 °F 30.22 in SW 0.1 mph 2.3 mph 78 % 0.00 in
22:39 50.4 °F 43.8 °F 30.29 in SW 0.3 mph 1.2 mph 78 % 0.00 in
22:44 50.4 °F 44.1 °F 30.29 in WSW 1.3 mph 3.5 mph 79 % 0.00 in
22:49 50.5 °F 44.2 °F 30.28 in SW 0.9 mph 3.5 mph 79 % 0.00 in
22:54 50.6 °F 44.3 °F 30.29 in WSW 1.1 mph 2.3 mph 79 % 0.00 in
22:59 50.6 °F 44.0 °F 30.29 in SW 1.1 mph 3.5 mph 78 % 0.00 in
23:04 50.7 °F 44.1 °F 30.28 in WSW 0.9 mph 5.8 mph 78 % 0.00 in
23:09 50.6 °F 44.0 °F 30.28 in WSW 0.2 mph 1.2 mph 78 % 0.00 in
23:15 50.6 °F 44.0 °F 30.28 in SW 2.3 mph 6.0 mph 78 % 0.00 in
23:20 50.6 °F 44.0 °F 30.28 in WSW 2.0 mph 6.0 mph 78 % 0.00 in
23:23 50.6 °F 44.0 °F 30.07 in WSW 1.2 mph 2.3 mph 78 % 0.00 in
23:26 50.6 °F 44.0 °F 30.29 in WSW 0.1 mph 1.2 mph 78 % 0.00 in
23:27 50.6 °F 44.0 °F 30.28 in WSW 0.2 mph 2.3 mph 78 % 0.00 in
23:30 50.6 °F 44.0 °F 30.06 in Calm   1.2 mph 78 % 0.00 in
23:35 50.5 °F 43.9 °F 30.28 in Calm   2.3 mph 78 % 0.00 in
23:40 50.5 °F 43.9 °F 30.06 in WSW 0.7 mph 2.3 mph 78 % 0.00 in
23:45 50.4 °F 43.8 °F 30.28 in WSW 0.4 mph 1.2 mph 78 % 0.00 in
23:50 50.3 °F 43.7 °F 30.27 in WSW 0.7 mph 4.6 mph 78 % 0.00 in
23:55 50.3 °F 43.4 °F 30.28 in SW 0.7 mph 3.5 mph 77 % 0.00 in
23:56 50.3 °F 43.4 °F 30.30 in SW 0.2 mph 3.5 mph 77 % 0.00 in
Crab Meadow Weather
Compliments of Weather Underground - 3 mb

Script developed by  Jim McMurry - jmcmurry@mwt.net Adapted for the template by  Wim van der Kuil - Leuven-Template.eu

Lightning: The average number of deaths from lightning is more than 100 a year with several more deaths from lightning related fires. Lightning injuries account for 3-5 times than those of lightning deaths.